Time;durP1;ratioP1;P1;durP2;ratioP2;P2;SDS_P1;SDS_P2;PMS_P1;PMS_P2;Temp;Humidity;BMP_temperature;BMP_pressure;BME280_temperature;BME280_humidity;BME280_pressure;Samples;Min_cycle;Max_cycle;Signal;HPM_P1;HPM_P2
2022/03/30 00:01:46;;;;;;;76.65;32.25;;;8.30;99.90;;;;;;5006103;28;20058;-61
2022/03/30 00:04:14;;;;;;;69.32;28.80;;;8.20;99.90;;;;;;5008773;28;20436;-62
2022/03/30 00:06:43;;;;;;;61.85;28.05;;;8.20;99.90;;;;;;5010056;28;20057;-60
2022/03/30 00:09:11;;;;;;;62.92;27.83;;;8.20;99.90;;;;;;5001751;28;20054;-62
2022/03/30 00:11:38;;;;;;;62.60;27.10;;;8.20;99.90;;;;;;4990540;28;20490;-62
2022/03/30 00:14:07;;;;;;;61.85;28.98;;;8.10;99.90;;;;;;4983597;28;20474;-64
2022/03/30 00:16:35;;;;;;;58.55;26.50;;;8.10;99.90;;;;;;4977956;28;20303;-60
2022/03/30 00:19:04;;;;;;;65.55;27.90;;;8.10;99.90;;;;;;5009686;28;20064;-63
2022/03/30 00:21:31;;;;;;;65.85;27.35;;;8.10;99.90;;;;;;4992440;28;20425;-61
2022/03/30 00:23:59;;;;;;;53.70;25.05;;;8.00;99.90;;;;;;5008557;28;20050;-61
2022/03/30 00:26:27;;;;;;;64.00;28.52;;;8.00;99.90;;;;;;4995193;28;20050;-61
2022/03/30 00:28:57;;;;;;;62.88;27.67;;;8.00;99.90;;;;;;4985496;28;20054;-62
2022/03/30 00:31:25;;;;;;;62.10;27.75;;;8.00;99.90;;;;;;4990691;28;20050;-62
2022/03/30 00:33:53;;;;;;;66.30;28.98;;;8.00;99.90;;;;;;5004196;28;20072;-64
2022/03/30 00:36:21;;;;;;;65.28;27.77;;;7.90;99.90;;;;;;4998742;28;20055;-64
2022/03/30 00:38:49;;;;;;;61.45;26.48;;;7.90;99.90;;;;;;4975427;28;20057;-61
2022/03/30 00:41:16;;;;;;;67.68;29.20;;;7.90;99.90;;;;;;5009355;28;20050;-63
2022/03/30 00:43:44;;;;;;;60.22;27.55;;;7.80;99.90;;;;;;5008520;28;20042;-62
2022/03/30 00:46:12;;;;;;;61.72;27.30;;;7.80;99.90;;;;;;5008831;28;20057;-60
2022/03/30 00:48:42;;;;;;;65.30;28.52;;;7.80;99.90;;;;;;5006603;28;20518;-60
2022/03/30 00:51:11;;;;;;;70.18;30.02;;;7.70;99.90;;;;;;5008879;28;20046;-61
2022/03/30 00:53:39;;;;;;;65.00;29.33;;;7.60;99.90;;;;;;4987218;28;20052;-61
2022/03/30 00:56:07;;;;;;;76.30;29.90;;;7.60;99.90;;;;;;5009118;28;20057;-62
2022/03/30 00:58:36;;;;;;;69.18;30.15;;;7.50;99.90;;;;;;5009054;28;20470;-62
2022/03/30 01:01:04;;;;;;;68.30;29.98;;;7.50;99.90;;;;;;5008180;28;20490;-62
2022/03/30 01:03:32;;;;;;;62.55;26.50;;;7.50;99.90;;;;;;4998340;28;20047;-61
2022/03/30 01:06:00;;;;;;;65.25;27.90;;;7.50;99.90;;;;;;4972325;28;20046;-60
2022/03/30 01:08:28;;;;;;;70.57;31.05;;;7.50;99.90;;;;;;4998834;28;20045;-61
2022/03/30 01:10:55;;;;;;;69.07;28.88;;;7.50;99.90;;;;;;5008763;28;20056;-61
2022/03/30 01:13:23;;;;;;;63.92;29.52;;;7.50;99.90;;;;;;5008301;28;20042;-61
2022/03/30 01:15:51;;;;;;;68.07;29.85;;;7.50;99.90;;;;;;4991076;28;20057;-61
2022/03/30 01:18:19;;;;;;;66.55;28.98;;;7.50;99.90;;;;;;5004037;28;20556;-62
2022/03/30 01:20:50;;;;;;;70.55;28.63;;;7.50;99.90;;;;;;5008219;28;20046;-61
2022/03/30 01:23:18;;;;;;;73.38;30.65;;;7.50;99.90;;;;;;5008699;28;20042;-61
2022/03/30 01:25:46;;;;;;;70.85;29.48;;;7.60;99.90;;;;;;4991621;28;20057;-62
2022/03/30 01:28:16;;;;;;;66.75;30.42;;;7.60;99.90;;;;;;5007888;28;20629;-61
2022/03/30 01:33:32;;;;;;;69.53;28.60;;;7.60;99.90;;;;;;5002277;28;20504;-60
2022/03/30 01:35:59;;;;;;;70.72;30.00;;;7.60;99.90;;;;;;4993112;28;20508;-61
2022/03/30 01:38:27;;;;;;;69.35;30.38;;;7.60;99.90;;;;;;5009075;28;20039;-60
2022/03/30 01:40:55;;;;;;;68.45;28.63;;;7.60;99.90;;;;;;5010725;28;20129;-60
2022/03/30 01:43:22;;;;;;;70.72;29.05;;;7.60;99.90;;;;;;4996374;28;20046;-60
2022/03/30 01:45:50;;;;;;;67.05;29.08;;;7.60;99.90;;;;;;4995570;28;20049;-60
2022/03/30 01:48:18;;;;;;;65.00;29.20;;;7.60;99.90;;;;;;5012204;28;20046;-60
2022/03/30 01:50:45;;;;;;;68.03;28.52;;;7.60;99.90;;;;;;4981827;28;20061;-61
2022/03/30 01:53:14;;;;;;;71.82;29.02;;;7.60;99.90;;;;;;5015525;28;20050;-60
2022/03/30 01:55:41;;;;;;;67.03;28.38;;;7.60;99.90;;;;;;4998149;28;20042;-61
2022/03/30 01:58:09;;;;;;;63.35;27.88;;;7.60;99.90;;;;;;5012165;28;20050;-62
2022/03/30 02:00:37;;;;;;;61.25;28.55;;;7.60;99.90;;;;;;4981534;28;20038;-60
2022/03/30 02:03:05;;;;;;;62.90;26.67;;;7.60;99.90;;;;;;4995888;28;20050;-65
2022/03/30 02:05:34;;;;;;;60.75;26.92;;;7.60;99.90;;;;;;4998939;28;20505;-61
2022/03/30 02:08:02;;;;;;;60.78;25.63;;;7.60;99.90;;;;;;5015484;28;20057;-61
2022/03/30 02:10:31;;;;;;;55.75;25.58;;;7.60;99.90;;;;;;5011966;28;20046;-63
2022/03/30 02:12:58;;;;;;;63.35;26.48;;;7.60;99.90;;;;;;5015018;28;20658;-63
2022/03/30 02:15:26;;;;;;;56.63;24.77;;;7.50;99.90;;;;;;5015212;28;20042;-64
2022/03/30 02:17:53;;;;;;;56.13;25.33;;;7.50;99.90;;;;;;4998007;28;20066;-64
2022/03/30 02:20:21;;;;;;;61.13;26.23;;;7.60;99.90;;;;;;5011998;28;20046;-65
2022/03/30 02:22:49;;;;;;;53.13;24.02;;;7.50;99.90;;;;;;5015069;28;20049;-64
2022/03/30 02:25:17;;;;;;;52.20;23.25;;;7.50;99.90;;;;;;5014046;28;20061;-64
2022/03/30 02:27:44;;;;;;;57.47;23.25;;;7.50;99.90;;;;;;4997613;28;20054;-65
2022/03/30 02:30:13;;;;;;;48.35;21.67;;;7.50;99.90;;;;;;5014215;28;20046;-64
2022/03/30 02:32:42;;;;;;;50.30;21.85;;;7.40;99.90;;;;;;4994033;28;20057;-62
2022/03/30 02:35:12;;;;;;;50.37;22.13;;;7.40;99.90;;;;;;4995130;28;20065;-63
2022/03/30 02:37:40;;;;;;;45.75;21.27;;;7.40;99.90;;;;;;4995165;28;20307;-61
2022/03/30 02:40:08;;;;;;;52.08;22.38;;;7.30;99.90;;;;;;4996213;28;20041;-62
2022/03/30 02:42:36;;;;;;;47.17;22.80;;;7.30;99.90;;;;;;4995201;28;20054;-61
2022/03/30 02:45:04;;;;;;;52.30;22.80;;;7.20;99.90;;;;;;4995289;28;20042;-61
2022/03/30 02:50:18;;;;;;;54.15;22.05;;;7.20;99.90;;;;;;5010127;28;20034;-64
2022/03/30 02:52:45;;;;;;;54.60;22.67;;;7.20;99.90;;;;;;5013921;28;20517;-64
2022/03/30 02:55:13;;;;;;;52.33;21.15;;;7.20;99.90;;;;;;5014697;28;20046;-65
2022/03/30 02:57:41;;;;;;;49.42;21.63;;;7.10;99.90;;;;;;5014553;28;20052;-64
2022/03/30 03:00:09;;;;;;;55.95;21.98;;;7.10;99.90;;;;;;4996108;28;20057;-65
2022/03/30 03:02:36;;;;;;;46.97;20.08;;;7.10;99.90;;;;;;5014498;28;20058;-64
2022/03/30 03:05:04;;;;;;;48.97;21.17;;;7.10;99.90;;;;;;5014380;28;20049;-63
2022/03/30 03:07:33;;;;;;;47.13;21.67;;;7.00;99.90;;;;;;5014520;28;20057;-63
2022/03/30 03:10:01;;;;;;;49.40;21.35;;;7.10;99.90;;;;;;5014399;28;20045;-64
2022/03/30 03:12:29;;;;;;;54.13;21.20;;;7.10;99.90;;;;;;5014196;28;20068;-64
2022/03/30 03:14:56;;;;;;;54.67;23.05;;;7.00;99.90;;;;;;5014394;28;20049;-64
2022/03/30 03:17:24;;;;;;;50.90;22.15;;;7.00;99.90;;;;;;5014115;28;20046;-63
2022/03/30 03:19:51;;;;;;;51.75;23.38;;;7.10;99.90;;;;;;5014164;28;20053;-61
2022/03/30 03:22:19;;;;;;;52.00;23.13;;;7.00;99.90;;;;;;5014154;28;20052;-62
2022/03/30 03:24:47;;;;;;;57.90;22.48;;;7.00;99.90;;;;;;5014140;28;20056;-61
2022/03/30 03:27:15;;;;;;;54.00;22.17;;;7.10;99.90;;;;;;5014425;28;20054;-60
2022/03/30 03:29:43;;;;;;;58.03;23.17;;;7.00;99.90;;;;;;4996540;28;20042;-60
2022/03/30 03:32:10;;;;;;;59.63;23.40;;;7.00;99.90;;;;;;5014002;28;20382;-60
2022/03/30 03:34:38;;;;;;;53.92;23.20;;;7.00;99.90;;;;;;5013870;28;20061;-60
2022/03/30 03:37:06;;;;;;;56.90;23.20;;;7.00;99.90;;;;;;5013716;28;20045;-60
2022/03/30 03:39:33;;;;;;;46.95;21.50;;;7.00;99.90;;;;;;5013852;28;20393;-61
2022/03/30 03:42:01;;;;;;;55.33;23.00;;;6.90;99.90;;;;;;4996281;28;20054;-60
2022/03/30 03:44:28;;;;;;;56.55;23.73;;;6.90;99.90;;;;;;5013852;28;20486;-60
2022/03/30 03:46:56;;;;;;;57.65;23.60;;;6.90;99.90;;;;;;5013459;28;20041;-60
2022/03/30 03:49:24;;;;;;;50.30;21.92;;;6.90;99.90;;;;;;5013548;28;20042;-60
2022/03/30 03:51:52;;;;;;;54.53;22.15;;;6.80;99.90;;;;;;5013259;28;20054;-60
2022/03/30 03:54:20;;;;;;;51.20;21.38;;;6.80;99.90;;;;;;5013246;28;20056;-64
2022/03/30 03:56:47;;;;;;;57.83;22.70;;;6.70;99.90;;;;;;5013342;28;20038;-63
2022/03/30 03:59:15;;;;;;;60.85;22.92;;;6.70;99.90;;;;;;5013400;28;20045;-66
2022/03/30 04:01:43;;;;;;;51.95;20.63;;;6.60;99.90;;;;;;5013343;28;20122;-64
2022/03/30 04:04:11;;;;;;;55.42;23.60;;;6.60;99.90;;;;;;5013469;28;20056;-64
2022/03/30 04:06:39;;;;;;;56.63;21.95;;;6.50;99.90;;;;;;5013231;28;20504;-63
2022/03/30 04:09:07;;;;;;;58.92;22.80;;;6.50;99.90;;;;;;5013291;28;20042;-63
2022/03/30 04:11:34;;;;;;;59.35;23.10;;;6.50;99.90;;;;;;4995594;28;20547;-62
2022/03/30 04:14:02;;;;;;;51.85;21.27;;;6.50;99.90;;;;;;5013153;28;20397;-62
2022/03/30 04:16:30;;;;;;;56.55;23.25;;;6.50;99.90;;;;;;5013022;28;20060;-65
2022/03/30 04:18:58;;;;;;;52.88;22.30;;;6.50;99.90;;;;;;5013076;28;20054;-65
2022/03/30 04:21:26;;;;;;;49.92;22.05;;;6.50;99.90;;;;;;5013010;28;20104;-66
2022/03/30 04:23:53;;;;;;;51.85;21.08;;;6.50;99.90;;;;;;5013119;28;20049;-65
2022/03/30 04:26:21;;;;;;;48.53;21.88;;;6.50;99.90;;;;;;4995577;28;20045;-65
2022/03/30 04:28:49;;;;;;;54.15;22.75;;;6.40;99.90;;;;;;4979389;28;20076;-64
2022/03/30 04:31:16;;;;;;;56.58;22.15;;;6.50;99.90;;;;;;4995460;28;20042;-66
2022/03/30 04:33:44;;;;;;;47.83;21.10;;;6.50;99.90;;;;;;5012993;28;20049;-62
2022/03/30 04:36:12;;;;;;;47.05;21.08;;;6.50;99.90;;;;;;5012918;28;20038;-66
2022/03/30 04:38:39;;;;;;;51.30;21.38;;;6.50;99.90;;;;;;5011539;28;20410;-64
2022/03/30 04:41:07;;;;;;;53.22;22.45;;;6.50;99.90;;;;;;5012637;28;20056;-61
2022/03/30 04:43:35;;;;;;;47.78;20.95;;;6.50;99.90;;;;;;5012809;28;20042;-64
2022/03/30 04:46:03;;;;;;;50.70;20.80;;;6.60;99.90;;;;;;4994785;28;20069;-61
2022/03/30 04:48:31;;;;;;;52.08;21.25;;;6.60;99.90;;;;;;4980694;28;20042;-62
2022/03/30 04:50:59;;;;;;;53.22;22.00;;;6.60;99.90;;;;;;4989640;28;20046;-64
2022/03/30 04:53:26;;;;;;;49.20;20.88;;;6.60;99.90;;;;;;4988332;28;20050;-61
2022/03/30 04:55:55;;;;;;;51.83;23.13;;;6.60;99.90;;;;;;4989642;28;20394;-62
2022/03/30 04:58:23;;;;;;;46.80;20.10;;;6.60;99.90;;;;;;4984171;28;20053;-63
2022/03/30 05:00:51;;;;;;;64.53;25.60;;;6.60;99.90;;;;;;5008960;28;20041;-65
2022/03/30 05:03:19;;;;;;;50.50;20.48;;;6.60;99.90;;;;;;4989192;28;20058;-62
2022/03/30 05:05:48;;;;;;;46.88;20.55;;;6.50;99.90;;;;;;4986392;28;20046;-65
2022/03/30 05:08:17;;;;;;;58.97;21.88;;;6.50;99.90;;;;;;4998976;28;20050;-62
2022/03/30 05:10:48;;;;;;;50.03;22.10;;;6.50;99.90;;;;;;5008068;28;20045;-65
2022/03/30 05:13:16;;;;;;;50.30;22.17;;;6.50;99.90;;;;;;5005096;28;20042;-62
2022/03/30 05:15:44;;;;;;;53.20;21.65;;;6.40;99.90;;;;;;5006021;28;20041;-65
2022/03/30 05:18:11;;;;;;;54.75;21.83;;;6.40;99.90;;;;;;5000915;28;20042;-61
2022/03/30 05:20:43;;;;;;;52.50;19.92;;;6.30;99.90;;;;;;4989228;28;20050;-66
2022/03/30 05:23:10;;;;;;;55.35;20.92;;;6.30;99.90;;;;;;4995164;28;20050;-61
2022/03/30 05:25:38;;;;;;;54.53;22.17;;;6.30;99.90;;;;;;4989360;28;20045;-63
2022/03/30 05:28:06;;;;;;;53.70;22.60;;;6.30;99.90;;;;;;4999097;28;20125;-64
2022/03/30 05:30:35;;;;;;;;;;;6.30;99.90;;;;;;4991508;28;20397;-60
2022/03/30 05:33:03;;;;;;;56.40;22.23;;;6.30;99.90;;;;;;5002163;28;19929;-60
2022/03/30 05:35:31;;;;;;;52.08;22.85;;;6.30;99.90;;;;;;4987744;28;20050;-65
2022/03/30 05:37:59;;;;;;;54.72;22.65;;;6.30;99.90;;;;;;4996700;28;20071;-63
2022/03/30 05:40:27;;;;;;;53.33;21.95;;;6.40;99.90;;;;;;5008158;28;20389;-62
2022/03/30 05:42:54;;;;;;;53.13;23.38;;;6.40;99.90;;;;;;5002821;28;20069;-63
2022/03/30 05:45:22;;;;;;;57.03;24.33;;;6.40;99.90;;;;;;5005193;28;20049;-61
2022/03/30 05:47:50;;;;;;;55.72;24.52;;;6.40;99.90;;;;;;4990482;28;20054;-63
2022/03/30 05:50:18;;;;;;;52.08;22.38;;;6.40;99.90;;;;;;5000784;28;20050;-62
2022/03/30 05:52:46;;;;;;;55.92;22.77;;;6.40;99.90;;;;;;5003666;28;20057;-63
2022/03/30 05:55:13;;;;;;;60.72;23.77;;;6.40;99.90;;;;;;4991071;28;20042;-64
2022/03/30 05:57:41;;;;;;;61.17;23.50;;;6.40;99.90;;;;;;5007982;28;20480;-62
2022/03/30 06:00:12;;;;;;;53.67;22.95;;;6.50;99.90;;;;;;5007174;28;20046;-61
2022/03/30 06:02:40;;;;;;;59.22;25.25;;;6.60;99.90;;;;;;5004848;28;20054;-61
2022/03/30 06:05:08;;;;;;;57.75;24.15;;;6.60;99.90;;;;;;5003979;28;20042;-61
2022/03/30 06:07:36;;;;;;;58.15;24.33;;;6.50;99.90;;;;;;5007945;28;20046;-62
2022/03/30 06:10:04;;;;;;;48.72;21.13;;;6.50;99.90;;;;;;5007102;28;20057;-61
2022/03/30 06:12:32;;;;;;;60.47;23.92;;;6.50;99.90;;;;;;5007977;28;20046;-61
2022/03/30 06:14:59;;;;;;;51.45;23.25;;;6.50;99.90;;;;;;5008105;28;20065;-62
2022/03/30 06:17:33;;;;;;;53.85;23.73;;;6.50;99.90;;;;;;5007886;28;20034;-62
2022/03/30 06:20:03;;;;;;;53.63;22.48;;;6.50;99.90;;;;;;4990275;28;20057;-61
2022/03/30 06:22:31;;;;;;;;;;;6.50;99.90;;;;;;5007935;28;20061;-62
2022/03/30 06:24:59;;;;;;;51.53;19.65;;;6.50;99.90;;;;;;4995789;28;19922;-61
2022/03/30 06:27:28;;;;;;;49.88;21.85;;;6.50;99.90;;;;;;4992823;28;20413;-62
2022/03/30 06:29:55;;;;;;;56.10;22.15;;;6.50;99.90;;;;;;5007796;28;20050;-62
2022/03/30 06:32:23;;;;;;;52.78;22.77;;;6.60;99.90;;;;;;4990221;28;20053;-62
2022/03/30 06:34:51;;;;;;;49.67;22.15;;;6.60;99.90;;;;;;5008907;28;20050;-62
2022/03/30 06:37:18;;;;;;;54.92;22.98;;;6.60;99.90;;;;;;5010066;28;20049;-62
2022/03/30 06:39:46;;;;;;;50.08;21.42;;;6.70;99.90;;;;;;5010996;28;20053;-62
2022/03/30 06:42:14;;;;;;;54.75;21.52;;;6.60;99.90;;;;;;5001933;28;20057;-62
2022/03/30 06:44:41;;;;;;;59.22;22.50;;;6.70;99.90;;;;;;4999220;28;20482;-62
2022/03/30 06:47:09;;;;;;;59.83;23.35;;;6.70;99.90;;;;;;4992800;28;20077;-62
2022/03/30 06:49:38;;;;;;;54.63;21.90;;;6.70;99.90;;;;;;4992148;28;20050;-64
2022/03/30 06:52:07;;;;;;;51.92;22.23;;;6.70;99.90;;;;;;4993617;28;20051;-64
2022/03/30 06:54:35;;;;;;;52.60;22.75;;;6.80;99.90;;;;;;4999010;28;20057;-66
2022/03/30 06:57:05;;;;;;;59.63;24.85;;;6.70;99.90;;;;;;5006476;28;20046;-64
2022/03/30 06:59:33;;;;;;;51.47;22.08;;;6.80;99.90;;;;;;5011073;28;20057;-64
2022/03/30 07:02:01;;;;;;;48.13;22.40;;;6.80;99.90;;;;;;4989972;28;20501;-64
2022/03/30 07:04:29;;;;;;;51.22;20.92;;;6.80;99.90;;;;;;5000176;28;20076;-65
2022/03/30 07:12:29;;;;;;;53.60;22.10;;;7.00;99.90;;;;;;4992886;28;20080;-63
2022/03/30 07:14:57;;;;;;;54.22;23.02;;;7.00;99.90;;;;;;5008283;28;20059;-63
2022/03/30 07:17:24;;;;;;;57.97;23.75;;;7.00;99.90;;;;;;4991123;28;20520;-63
2022/03/30 07:19:52;;;;;;;52.75;22.05;;;7.10;99.90;;;;;;4988522;28;20046;-63
2022/03/30 07:22:20;;;;;;;50.92;21.80;;;7.10;99.90;;;;;;4991934;28;20429;-63
2022/03/30 07:24:48;;;;;;;47.33;21.83;;;7.10;99.90;;;;;;5009762;28;20050;-64
2022/03/30 07:27:16;;;;;;;50.80;21.50;;;7.10;99.90;;;;;;5002069;28;20034;-63
2022/03/30 07:29:44;;;;;;;49.13;20.98;;;7.20;99.90;;;;;;5010811;28;20049;-62
2022/03/30 07:32:11;;;;;;;52.88;22.75;;;7.20;99.90;;;;;;5001190;28;20393;-62
2022/03/30 07:34:39;;;;;;;50.72;21.70;;;7.20;99.90;;;;;;4996068;28;20381;-63
2022/03/30 07:37:07;;;;;;;50.60;22.25;;;7.20;99.90;;;;;;5008370;28;20041;-63
2022/03/30 07:39:34;;;;;;;50.75;21.20;;;7.30;99.90;;;;;;5010113;28;20057;-63
2022/03/30 07:42:02;;;;;;;52.00;23.05;;;7.30;99.90;;;;;;4993178;28;20501;-63
2022/03/30 07:44:31;;;;;;;46.20;20.88;;;7.30;99.90;;;;;;5009011;28;20050;-62
2022/03/30 07:46:59;;;;;;;53.60;22.38;;;7.30;99.90;;;;;;4982185;28;20054;-62
2022/03/30 07:49:27;;;;;;;57.95;24.73;;;7.30;99.90;;;;;;4994656;28;20046;-63
2022/03/30 07:51:54;;;;;;;61.83;24.13;;;7.40;99.90;;;;;;4998352;28;20042;-66
2022/03/30 07:54:22;;;;;;;53.63;23.15;;;7.40;99.90;;;;;;5009389;28;20045;-64
2022/03/30 07:56:50;;;;;;;55.20;24.20;;;7.40;99.90;;;;;;5010305;28;20056;-64
2022/03/30 07:59:18;;;;;;;55.20;23.25;;;7.40;99.90;;;;;;5007832;28;20053;-65
2022/03/30 08:01:46;;;;;;;50.70;21.58;;;7.40;99.90;;;;;;4999681;28;20050;-68
2022/03/30 08:04:14;;;;;;;52.95;23.63;;;7.50;99.90;;;;;;4980846;28;20042;-67
2022/03/30 08:06:42;;;;;;;52.92;22.15;;;7.50;99.90;;;;;;5006134;28;20038;-66
2022/03/30 08:09:10;;;;;;;53.47;22.85;;;7.50;99.90;;;;;;4992259;28;20062;-68
2022/03/30 08:11:38;;;;;;;52.00;23.05;;;7.50;99.90;;;;;;5008606;28;20057;-67
2022/03/30 08:14:06;;;;;;;45.95;20.52;;;7.50;99.90;;;;;;5009616;28;20425;-67
2022/03/30 08:16:33;;;;;;;38.95;18.63;;;7.60;99.90;;;;;;5004436;28;20042;-66
2022/03/30 08:19:01;;;;;;;47.67;19.65;;;7.70;99.90;;;;;;5002107;28;20050;-68
2022/03/30 08:24:15;;;;;;;43.67;18.13;;;7.80;99.90;;;;;;4999099;28;20050;-67
2022/03/30 08:26:43;;;;;;;37.38;18.02;;;7.90;99.90;;;;;;5006529;28;20049;-65
2022/03/30 08:29:11;;;;;;;42.03;17.42;;;8.00;99.90;;;;;;4995612;28;20142;-68
2022/03/30 08:31:52;;;;;;;36.00;16.95;;;8.00;99.90;;;;;;5000844;28;20054;-68
2022/03/30 08:34:20;;;;;;;36.70;16.90;;;8.10;99.90;;;;;;4988722;28;20053;-63
2022/03/30 08:36:48;;;;;;;36.28;17.15;;;8.20;99.90;;;;;;5009538;28;20054;-63
2022/03/30 08:39:15;;;;;;;40.03;18.30;;;8.30;99.90;;;;;;5007716;28;20046;-66
2022/03/30 08:41:47;;;;;;;45.85;17.77;;;8.30;99.90;;;;;;5008217;28;20052;-66
2022/03/30 08:44:17;;;;;;;37.45;17.08;;;8.30;99.90;;;;;;5007678;28;20053;-60
2022/03/30 08:46:45;;;;;;;37.70;16.85;;;8.30;99.90;;;;;;5008132;28;20406;-61
2022/03/30 08:49:15;;;;;;;40.35;17.58;;;8.20;99.90;;;;;;5005990;28;20053;-60
2022/03/30 08:51:47;;;;;;;45.13;19.20;;;8.20;99.90;;;;;;4999854;28;20042;-60
2022/03/30 08:54:17;;;;;;;46.80;19.50;;;8.10;99.90;;;;;;5000609;28;20042;-62
2022/03/30 08:56:46;;;;;;;39.97;17.98;;;8.10;99.90;;;;;;4994677;28;20045;-60
2022/03/30 08:59:19;;;;;;;46.33;20.05;;;8.00;99.90;;;;;;5007780;28;20125;-60
2022/03/30 09:01:47;;;;;;;42.75;19.52;;;8.00;99.90;;;;;;4991129;28;20038;-61
2022/03/30 09:04:17;;;;;;;46.10;20.15;;;7.90;99.90;;;;;;5002527;28;20540;-63
2022/03/30 09:06:46;;;;;;;45.70;19.42;;;7.90;99.90;;;;;;4999038;28;20057;-64
2022/03/30 09:09:15;;;;;;;45.45;19.50;;;7.90;99.90;;;;;;5005793;28;20060;-65
2022/03/30 09:11:52;;;;;;;43.50;18.27;;;7.90;99.90;;;;;;4988456;28;20523;-62
2022/03/30 09:14:22;;;;;;;44.28;20.00;;;7.90;99.90;;;;;;5006649;28;20046;-64
2022/03/30 09:16:56;;;;;;;40.30;19.30;;;7.90;99.90;;;;;;4989803;28;20042;-65
2022/03/30 09:19:24;;;;;;;46.35;19.40;;;7.80;99.90;;;;;;4985310;28;20274;-61
2022/03/30 09:21:53;;;;;;;43.95;18.85;;;7.80;99.90;;;;;;4992103;28;20054;-61
2022/03/30 09:24:27;;;;;;;37.90;18.20;;;7.80;99.90;;;;;;5007230;28;20061;-60
2022/03/30 09:26:56;;;;;;;48.53;19.58;;;7.70;99.90;;;;;;5007507;28;20042;-61
2022/03/30 09:29:28;;;;;;;42.47;19.83;;;7.80;99.90;;;;;;5000796;28;20042;-61
2022/03/30 09:32:16;;;;;;;43.40;18.63;;;7.70;99.90;;;;;;5007569;28;20481;-60
2022/03/30 09:34:52;;;;;;;47.55;19.23;;;7.70;99.90;;;;;;5003869;28;20511;-61
2022/03/30 09:37:20;;;;;;;45.63;19.50;;;7.70;99.90;;;;;;5001061;28;20049;-62
2022/03/30 09:39:49;;;;;;;47.53;21.70;;;7.70;99.90;;;;;;5008459;28;20428;-63
2022/03/30 09:42:18;;;;;;;44.88;20.10;;;7.70;99.90;;;;;;5008494;28;20045;-63
2022/03/30 09:44:54;;;;;;;54.22;21.70;;;7.80;99.90;;;;;;5007796;28;20050;-64
2022/03/30 09:47:26;;;;;;;45.03;20.42;;;7.80;99.90;;;;;;4990024;28;20049;-64
2022/03/30 09:49:55;;;;;;;44.25;19.27;;;7.80;99.90;;;;;;5003390;28;20042;-65
2022/03/30 09:52:26;;;;;;;39.25;19.90;;;7.70;99.90;;;;;;4989952;28;20062;-63
2022/03/30 09:54:57;;;;;;;29.48;15.13;;;7.60;99.90;;;;;;5008431;28;20523;-62
2022/03/30 09:57:38;;;;;;;25.83;13.55;;;7.50;99.90;;;;;;5004300;28;20038;-63
2022/03/30 10:00:17;;;;;;;21.20;9.50;;;7.40;99.90;;;;;;4988476;28;20057;-63
2022/03/30 10:02:51;;;;;;;17.45;9.82;;;7.30;99.90;;;;;;5006116;28;20046;-62
2022/03/30 10:05:21;;;;;;;19.67;9.20;;;7.30;99.90;;;;;;4999922;28;20042;-64
2022/03/30 10:07:50;;;;;;;20.45;9.45;;;7.20;99.90;;;;;;4995647;28;20057;-64
2022/03/30 10:10:22;;;;;;;21.27;9.38;;;7.10;99.90;;;;;;4994704;28;20508;-62
2022/03/30 10:12:49;;;;;;;15.63;8.02;;;7.10;99.90;;;;;;4994339;28;20057;-63
2022/03/30 10:15:17;;;;;;;26.80;13.80;;;7.10;99.90;;;;;;5009061;28;20071;-62
2022/03/30 10:17:45;;;;;;;26.83;11.27;;;7.10;99.90;;;;;;5007680;28;20057;-63
2022/03/30 10:20:13;;;;;;;21.17;9.77;;;7.10;99.90;;;;;;5007067;28;20530;-63
2022/03/30 10:23:03;;;;;;;17.20;8.82;;;7.00;99.90;;;;;;5010797;28;20053;-64
2022/03/30 10:25:53;;;;;;;24.05;11.20;;;7.00;99.90;;;;;;4994234;28;20052;-64
2022/03/30 10:28:43;;;;;;;20.10;9.90;;;6.90;99.90;;;;;;5009631;28;20054;-65
2022/03/30 10:31:11;;;;;;;17.05;9.25;;;6.90;99.90;;;;;;5011258;28;20120;-66
2022/03/30 10:33:44;;;;;;;21.88;9.77;;;6.90;99.90;;;;;;4994215;28;20504;-65
2022/03/30 10:36:30;;;;;;;17.60;6.93;;;7.00;99.90;;;;;;5000322;28;20042;-65
2022/03/30 10:39:14;;;;;;;13.73;7.40;;;7.00;99.90;;;;;;5009210;28;20073;-67
2022/03/30 10:42:07;;;;;;;10.40;6.40;;;7.10;99.90;;;;;;5007460;28;20060;-66
2022/03/30 10:44:37;;;;;;;17.23;8.18;;;7.10;99.90;;;;;;5000221;28;20432;-65
2022/03/30 10:47:10;;;;;;;12.75;5.20;;;7.10;99.90;;;;;;4990671;28;20394;-65
2022/03/30 10:49:38;;;;;;;7.03;4.10;;;7.00;99.90;;;;;;5008675;28;20042;-63
2022/03/30 10:52:25;;;;;;;6.20;3.20;;;7.00;99.90;;;;;;4983262;28;20046;-67
2022/03/30 10:55:12;;;;;;;4.30;2.40;;;7.00;99.90;;;;;;4998159;28;20067;-67
2022/03/30 10:57:57;;;;;;;4.78;2.35;;;7.00;99.90;;;;;;5010898;28;20057;-67
2022/03/30 11:00:37;;;;;;;2.78;1.20;;;6.90;99.90;;;;;;5009860;28;20046;-67
2022/03/30 11:03:16;;;;;;;2.35;1.60;;;6.90;99.90;;;;;;5010501;28;20608;-63
2022/03/30 11:06:05;;;;;;;3.17;1.58;;;6.80;99.90;;;;;;5004524;28;20494;-68
2022/03/30 11:08:33;;;;;;;6.03;2.53;;;6.80;99.90;;;;;;4994647;28;20054;-66
2022/03/30 11:11:02;;;;;;;3.63;1.30;;;6.80;99.90;;;;;;5008985;28;20046;-64
2022/03/30 11:13:30;;;;;;;1.02;0.70;;;6.80;99.90;;;;;;4992411;28;20034;-64
2022/03/30 11:16:01;;;;;;;2.05;1.05;;;6.80;99.90;;;;;;5005236;28;20046;-63
2022/03/30 11:18:29;;;;;;;2.75;1.80;;;6.80;99.90;;;;;;5002959;28;20068;-63
2022/03/30 11:21:11;;;;;;;2.78;1.45;;;6.70;99.90;;;;;;5002662;28;20050;-64
2022/03/30 11:23:39;;;;;;;1.98;0.90;;;6.70;99.90;;;;;;4991484;28;20053;-63
2022/03/30 11:26:07;;;;;;;1.70;1.15;;;6.70;99.90;;;;;;5009083;28;20042;-63
2022/03/30 11:28:37;;;;;;;1.75;0.95;;;6.70;99.90;;;;;;5005259;28;20042;-64
2022/03/30 11:31:20;;;;;;;3.30;0.93;;;6.60;99.90;;;;;;4997718;28;20050;-62
2022/03/30 11:34:22;;;;;;;2.30;1.40;;;6.60;99.90;;;;;;5005039;28;20100;-64
2022/03/30 11:36:50;;;;;;;4.18;2.05;;;6.60;99.90;;;;;;5002729;28;20065;-66
2022/03/30 11:39:29;;;;;;;2.67;1.23;;;6.60;99.90;;;;;;4990613;28;20421;-63
2022/03/30 11:41:59;;;;;;;5.80;2.20;;;6.60;99.90;;;;;;4988663;28;20438;-68
2022/03/30 11:47:19;;;;;;;3.10;1.90;;;6.70;99.90;;;;;;4991455;28;20261;-62
2022/03/30 11:49:55;;;;;;;2.35;1.50;;;6.70;99.90;;;;;;4997746;28;20042;-65
2022/03/30 11:52:24;;;;;;;2.40;1.77;;;6.80;99.90;;;;;;5010225;28;20485;-65
2022/03/30 11:54:59;;;;;;;3.05;1.48;;;6.80;99.90;;;;;;5009476;28;20489;-62
2022/03/30 11:57:26;;;;;;;3.47;2.03;;;6.80;99.90;;;;;;5008290;28;20046;-62
2022/03/30 12:00:03;;;;;;;2.42;1.73;;;6.80;99.90;;;;;;5009054;28;20042;-61
2022/03/30 12:02:42;;;;;;;1.50;1.30;;;6.80;99.90;;;;;;5009610;28;20033;-61
2022/03/30 12:05:10;;;;;;;2.70;1.83;;;6.90;99.90;;;;;;4986488;28;20490;-60
2022/03/30 12:07:39;;;;;;;3.78;1.77;;;6.90;99.90;;;;;;4996555;28;20073;-64
2022/03/30 12:10:13;;;;;;;3.63;1.65;;;6.90;99.90;;;;;;5007087;28;20481;-63
2022/03/30 12:12:42;;;;;;;2.65;1.48;;;6.90;99.90;;;;;;5002538;28;20397;-64
2022/03/30 12:15:19;;;;;;;3.70;1.85;;;6.80;99.90;;;;;;5003819;28;20042;-63
2022/03/30 12:17:57;;;;;;;1.52;0.98;;;6.80;99.90;;;;;;4999321;28;20050;-63
2022/03/30 12:20:31;;;;;;;1.52;1.20;;;6.80;99.90;;;;;;5007125;28;20493;-63
2022/03/30 12:22:59;;;;;;;2.75;1.55;;;6.80;99.90;;;;;;5009279;28;20050;-63
2022/03/30 12:25:28;;;;;;;1.45;1.10;;;6.80;99.90;;;;;;5009595;28;20042;-63
2022/03/30 12:27:57;;;;;;;2.28;1.50;;;6.80;99.90;;;;;;5009392;28;20038;-62
2022/03/30 12:30:27;;;;;;;1.40;1.10;;;6.80;99.90;;;;;;5005326;28;20042;-62
2022/03/30 12:32:56;;;;;;;1.52;1.10;;;6.90;99.90;;;;;;5009182;28;20433;-63
2022/03/30 12:35:37;;;;;;;5.78;1.10;;;6.80;99.90;;;;;;5004109;28;20087;-66
2022/03/30 12:38:11;;;;;;;2.75;1.35;;;6.90;99.90;;;;;;5005994;28;20052;-64
2022/03/30 12:40:41;;;;;;;2.15;1.30;;;6.90;99.90;;;;;;5008575;28;20041;-63
2022/03/30 12:43:10;;;;;;;2.15;1.20;;;6.90;99.90;;;;;;4989458;28;20049;-64
2022/03/30 12:45:53;;;;;;;2.05;1.50;;;7.00;99.90;;;;;;4989882;28;20043;-64
2022/03/30 12:48:33;;;;;;;3.13;1.85;;;6.90;99.90;;;;;;4983159;28;20532;-64
2022/03/30 12:51:02;;;;;;;14.32;5.32;;;6.90;99.90;;;;;;5007177;28;20281;-66
2022/03/30 12:53:35;;;;;;;3.85;2.25;;;6.90;99.90;;;;;;5007632;28;20057;-63
2022/03/30 12:56:11;;;;;;;2.60;1.60;;;6.90;99.90;;;;;;5008881;28;20494;-63
2022/03/30 12:58:51;;;;;;;2.40;1.67;;;6.90;99.90;;;;;;5001500;28;20397;-64
2022/03/30 13:01:35;;;;;;;2.85;1.85;;;6.90;99.90;;;;;;4989181;28;20079;-64
2022/03/30 13:04:17;;;;;;;3.38;2.35;;;7.00;99.90;;;;;;4990659;28;20434;-63
2022/03/30 13:07:13;;;;;;;2.45;1.80;;;7.00;99.90;;;;;;5000967;28;20050;-63
2022/03/30 13:10:09;;;;;;;4.47;2.10;;;7.00;99.90;;;;;;4990435;28;20379;-63
2022/03/30 13:12:41;;;;;;;4.38;1.88;;;7.20;99.90;;;;;;4991827;28;20508;-67